Terminal Aerodrome Forecast
Issued by NWS

Home | Current Version | Previous Version | Text Only | Print | Product List | Glossary On
Versions: 1 2 3 4 5 6 7 8 9 10 11 12 13 14 15 16 17 18 19 20 21 22 23 24 25 26 27 28 29 30 31 32 33 34 35 36
356
FTUS41 KOKX 232321
TAFGON
TAF
KGON 232321Z 2400/2424 14007KT 2SM -RA BR OVC006
      TEMPO 2400/2403 1SM -DZ VV004
     FM240300 21006KT 2SM -RA BR OVC005 WS020/25035KT
     FM240700 27005KT P6SM OVC008
     FM241500 29007KT P6SM SCT015 OVC080
     FM242000 36005KT P6SM OVC080
     FM242300 33004KT 5SM -RA BR BKN025 OVC050=

USA.gov is the U.S. government's official web portal to all federal, state and local government web resources and services.